sensor_id;sensor_type;location;lat;lon;timestamp;P1;durP1;ratioP1;P2;durP2;ratioP2
59074;SDS011;44860;53.020;6.738;2022-09-21T00:00:29;6.03;;;2.58;;
59074;SDS011;44860;53.020;6.738;2022-09-21T00:02:55;4.43;;;2.28;;
59074;SDS011;44860;53.020;6.738;2022-09-21T00:05:21;7.78;;;2.60;;
59074;SDS011;44860;53.020;6.738;2022-09-21T00:07:48;8.90;;;2.70;;
59074;SDS011;44860;53.020;6.738;2022-09-21T00:10:14;5.43;;;2.45;;
59074;SDS011;44860;53.020;6.738;2022-09-21T00:12:40;5.55;;;2.50;;
59074;SDS011;44860;53.020;6.738;2022-09-21T00:15:07;5.00;;;2.10;;
59074;SDS011;44860;53.020;6.738;2022-09-21T00:17:34;5.07;;;2.30;;
59074;SDS011;44860;53.020;6.738;2022-09-21T00:20:01;5.20;;;2.50;;
59074;SDS011;44860;53.020;6.738;2022-09-21T00:22:31;6.35;;;2.60;;
59074;SDS011;44860;53.020;6.738;2022-09-21T00:24:57;4.95;;;2.75;;
59074;SDS011;44860;53.020;6.738;2022-09-21T00:27:23;4.60;;;2.30;;
59074;SDS011;44860;53.020;6.738;2022-09-21T00:30:00;6.88;;;2.40;;
59074;SDS011;44860;53.020;6.738;2022-09-21T00:32:29;4.80;;;2.60;;
59074;SDS011;44860;53.020;6.738;2022-09-21T00:34:58;5.72;;;2.55;;
59074;SDS011;44860;53.020;6.738;2022-09-21T00:37:26;5.10;;;2.60;;
59074;SDS011;44860;53.020;6.738;2022-09-21T00:39:53;3.30;;;2.70;;
59074;SDS011;44860;53.020;6.738;2022-09-21T00:42:20;5.20;;;2.78;;
59074;SDS011;44860;53.020;6.738;2022-09-21T00:44:48;4.43;;;2.75;;
59074;SDS011;44860;53.020;6.738;2022-09-21T00:47:25;5.85;;;2.80;;
59074;SDS011;44860;53.020;6.738;2022-09-21T00:49:53;5.35;;;2.75;;
59074;SDS011;44860;53.020;6.738;2022-09-21T00:52:22;5.78;;;2.85;;
59074;SDS011;44860;53.020;6.738;2022-09-21T00:54:52;7.43;;;2.55;;
59074;SDS011;44860;53.020;6.738;2022-09-21T00:57:24;7.43;;;2.70;;
59074;SDS011;44860;53.020;6.738;2022-09-21T00:59:55;3.70;;;2.60;;
59074;SDS011;44860;53.020;6.738;2022-09-21T01:02:22;6.85;;;2.47;;
59074;SDS011;44860;53.020;6.738;2022-09-21T01:04:48;5.57;;;2.70;;
59074;SDS011;44860;53.020;6.738;2022-09-21T01:07:18;6.40;;;2.60;;
59074;SDS011;44860;53.020;6.738;2022-09-21T01:09:48;5.45;;;2.47;;
59074;SDS011;44860;53.020;6.738;2022-09-21T01:12:42;4.03;;;2.40;;
59074;SDS011;44860;53.020;6.738;2022-09-21T01:23:27;4.40;;;2.83;;
59074;SDS011;44860;53.020;6.738;2022-09-21T01:31:27;6.70;;;2.95;;
59074;SDS011;44860;53.020;6.738;2022-09-21T01:34:02;3.47;;;2.50;;
59074;SDS011;44860;53.020;6.738;2022-09-21T01:36:34;5.38;;;3.00;;
59074;SDS011;44860;53.020;6.738;2022-09-21T01:39:05;7.47;;;3.17;;
59074;SDS011;44860;53.020;6.738;2022-09-21T01:41:33;4.80;;;2.78;;
59074;SDS011;44860;53.020;6.738;2022-09-21T01:44:05;6.32;;;3.00;;
59074;SDS011;44860;53.020;6.738;2022-09-21T01:46:35;5.15;;;2.90;;
59074;SDS011;44860;53.020;6.738;2022-09-21T01:49:05;5.55;;;3.05;;
59074;SDS011;44860;53.020;6.738;2022-09-21T01:51:38;5.85;;;2.70;;
59074;SDS011;44860;53.020;6.738;2022-09-21T01:54:09;5.38;;;2.95;;
59074;SDS011;44860;53.020;6.738;2022-09-21T01:56:43;5.90;;;2.83;;
59074;SDS011;44860;53.020;6.738;2022-09-21T02:01:53;4.68;;;2.95;;
59074;SDS011;44860;53.020;6.738;2022-09-21T02:04:21;5.68;;;3.00;;
59074;SDS011;44860;53.020;6.738;2022-09-21T02:06:48;7.50;;;3.45;;
59074;SDS011;44860;53.020;6.738;2022-09-21T02:09:14;5.47;;;3.13;;
59074;SDS011;44860;53.020;6.738;2022-09-21T02:11:41;6.95;;;3.42;;
59074;SDS011;44860;53.020;6.738;2022-09-21T02:14:11;4.93;;;3.13;;
59074;SDS011;44860;53.020;6.738;2022-09-21T02:19:20;6.00;;;3.40;;
59074;SDS011;44860;53.020;6.738;2022-09-21T02:22:04;9.75;;;3.78;;
59074;SDS011;44860;53.020;6.738;2022-09-21T02:24:49;7.57;;;3.95;;
59074;SDS011;44860;53.020;6.738;2022-09-21T02:35:43;7.55;;;3.63;;
59074;SDS011;44860;53.020;6.738;2022-09-21T02:38:19;6.70;;;3.25;;
59074;SDS011;44860;53.020;6.738;2022-09-21T02:40:51;6.18;;;3.00;;
59074;SDS011;44860;53.020;6.738;2022-09-21T02:46:10;6.75;;;2.80;;
59074;SDS011;44860;53.020;6.738;2022-09-21T02:48:43;4.75;;;2.70;;
59074;SDS011;44860;53.020;6.738;2022-09-21T02:51:34;7.40;;;3.30;;
59074;SDS011;44860;53.020;6.738;2022-09-21T02:54:11;5.78;;;2.95;;
59074;SDS011;44860;53.020;6.738;2022-09-21T02:56:40;4.32;;;2.72;;
59074;SDS011;44860;53.020;6.738;2022-09-21T02:59:08;6.38;;;3.30;;
59074;SDS011;44860;53.020;6.738;2022-09-21T03:01:34;5.40;;;3.20;;
59074;SDS011;44860;53.020;6.738;2022-09-21T03:04:03;5.30;;;3.47;;
59074;SDS011;44860;53.020;6.738;2022-09-21T03:06:29;4.80;;;3.15;;
59074;SDS011;44860;53.020;6.738;2022-09-21T03:08:55;5.30;;;3.10;;
59074;SDS011;44860;53.020;6.738;2022-09-21T03:11:22;5.50;;;2.92;;
59074;SDS011;44860;53.020;6.738;2022-09-21T03:13:48;5.30;;;3.33;;
59074;SDS011;44860;53.020;6.738;2022-09-21T03:16:14;4.75;;;2.72;;
59074;SDS011;44860;53.020;6.738;2022-09-21T03:18:40;6.45;;;3.50;;
59074;SDS011;44860;53.020;6.738;2022-09-21T03:21:08;4.63;;;3.00;;
59074;SDS011;44860;53.020;6.738;2022-09-21T03:23:34;5.13;;;3.38;;
59074;SDS011;44860;53.020;6.738;2022-09-21T03:26:00;4.88;;;2.90;;
59074;SDS011;44860;53.020;6.738;2022-09-21T03:28:26;8.45;;;2.92;;
59074;SDS011;44860;53.020;6.738;2022-09-21T03:30:52;4.88;;;2.97;;
59074;SDS011;44860;53.020;6.738;2022-09-21T03:33:18;6.40;;;3.10;;
59074;SDS011;44860;53.020;6.738;2022-09-21T03:35:46;7.57;;;3.60;;
59074;SDS011;44860;53.020;6.738;2022-09-21T03:38:13;5.65;;;3.42;;
59074;SDS011;44860;53.020;6.738;2022-09-21T03:40:39;5.05;;;3.13;;
59074;SDS011;44860;53.020;6.738;2022-09-21T03:43:10;6.60;;;3.80;;
59074;SDS011;44860;53.020;6.738;2022-09-21T03:45:36;4.88;;;3.35;;
59074;SDS011;44860;53.020;6.738;2022-09-21T03:48:02;7.68;;;3.78;;
59074;SDS011;44860;53.020;6.738;2022-09-21T03:50:28;6.43;;;3.70;;
59074;SDS011;44860;53.020;6.738;2022-09-21T03:52:54;6.55;;;3.88;;
59074;SDS011;44860;53.020;6.738;2022-09-21T03:55:20;7.65;;;3.58;;
59074;SDS011;44860;53.020;6.738;2022-09-21T03:57:46;7.38;;;3.67;;
59074;SDS011;44860;53.020;6.738;2022-09-21T04:00:13;4.75;;;3.45;;
59074;SDS011;44860;53.020;6.738;2022-09-21T04:02:39;7.28;;;3.60;;
59074;SDS011;44860;53.020;6.738;2022-09-21T04:05:07;8.57;;;3.78;;
59074;SDS011;44860;53.020;6.738;2022-09-21T04:07:34;5.55;;;3.67;;
59074;SDS011;44860;53.020;6.738;2022-09-21T04:10:00;5.97;;;3.70;;
59074;SDS011;44860;53.020;6.738;2022-09-21T04:12:28;6.10;;;3.65;;
59074;SDS011;44860;53.020;6.738;2022-09-21T04:14:54;6.72;;;3.90;;
59074;SDS011;44860;53.020;6.738;2022-09-21T04:17:19;9.95;;;3.92;;
59074;SDS011;44860;53.020;6.738;2022-09-21T04:19:45;6.60;;;4.00;;
59074;SDS011;44860;53.020;6.738;2022-09-21T04:22:11;5.22;;;3.83;;
59074;SDS011;44860;53.020;6.738;2022-09-21T04:24:37;5.43;;;3.35;;
59074;SDS011;44860;53.020;6.738;2022-09-21T04:27:07;8.95;;;3.90;;
59074;SDS011;44860;53.020;6.738;2022-09-21T04:29:33;11.38;;;3.80;;
59074;SDS011;44860;53.020;6.738;2022-09-21T04:31:58;6.55;;;3.90;;
59074;SDS011;44860;53.020;6.738;2022-09-21T04:34:24;6.47;;;3.80;;
59074;SDS011;44860;53.020;6.738;2022-09-21T04:36:50;5.65;;;3.63;;
59074;SDS011;44860;53.020;6.738;2022-09-21T04:39:18;7.75;;;4.32;;
59074;SDS011;44860;53.020;6.738;2022-09-21T04:41:43;7.43;;;4.22;;
59074;SDS011;44860;53.020;6.738;2022-09-21T04:44:09;7.95;;;4.00;;
59074;SDS011;44860;53.020;6.738;2022-09-21T04:46:35;7.32;;;4.25;;
59074;SDS011;44860;53.020;6.738;2022-09-21T04:49:02;7.32;;;4.25;;
59074;SDS011;44860;53.020;6.738;2022-09-21T04:51:28;5.15;;;4.00;;
59074;SDS011;44860;53.020;6.738;2022-09-21T04:53:53;8.13;;;4.18;;
59074;SDS011;44860;53.020;6.738;2022-09-21T04:56:20;8.85;;;4.35;;
59074;SDS011;44860;53.020;6.738;2022-09-21T04:58:45;4.47;;;3.70;;
59074;SDS011;44860;53.020;6.738;2022-09-21T05:01:11;6.00;;;3.70;;
59074;SDS011;44860;53.020;6.738;2022-09-21T05:03:37;5.75;;;3.78;;
59074;SDS011;44860;53.020;6.738;2022-09-21T05:06:03;7.80;;;4.40;;
59074;SDS011;44860;53.020;6.738;2022-09-21T05:08:29;7.10;;;3.92;;
59074;SDS011;44860;53.020;6.738;2022-09-21T05:11:14;6.72;;;3.58;;
59074;SDS011;44860;53.020;6.738;2022-09-21T05:13:43;5.65;;;3.70;;
59074;SDS011;44860;53.020;6.738;2022-09-21T05:16:09;6.60;;;3.63;;
59074;SDS011;44860;53.020;6.738;2022-09-21T05:18:35;5.32;;;3.67;;
59074;SDS011;44860;53.020;6.738;2022-09-21T05:21:02;8.90;;;3.90;;
59074;SDS011;44860;53.020;6.738;2022-09-21T05:23:29;7.60;;;3.83;;
59074;SDS011;44860;53.020;6.738;2022-09-21T05:25:55;5.93;;;4.00;;
59074;SDS011;44860;53.020;6.738;2022-09-21T05:28:22;6.40;;;3.70;;
59074;SDS011;44860;53.020;6.738;2022-09-21T05:30:53;6.78;;;3.80;;
59074;SDS011;44860;53.020;6.738;2022-09-21T05:33:29;6.13;;;3.95;;
59074;SDS011;44860;53.020;6.738;2022-09-21T05:38:35;5.70;;;3.80;;
59074;SDS011;44860;53.020;6.738;2022-09-21T05:41:01;7.07;;;3.85;;
59074;SDS011;44860;53.020;6.738;2022-09-21T05:43:28;5.78;;;3.50;;
59074;SDS011;44860;53.020;6.738;2022-09-21T05:45:59;5.70;;;3.30;;
59074;SDS011;44860;53.020;6.738;2022-09-21T05:48:59;5.40;;;3.65;;
59074;SDS011;44860;53.020;6.738;2022-09-21T05:51:33;6.30;;;3.83;;
59074;SDS011;44860;53.020;6.738;2022-09-21T05:57:09;6.53;;;4.00;;
59074;SDS011;44860;53.020;6.738;2022-09-21T06:05:15;9.82;;;3.88;;
59074;SDS011;44860;53.020;6.738;2022-09-21T06:07:41;8.40;;;4.40;;
59074;SDS011;44860;53.020;6.738;2022-09-21T06:10:08;8.43;;;4.82;;
59074;SDS011;44860;53.020;6.738;2022-09-21T06:12:34;8.00;;;4.15;;
59074;SDS011;44860;53.020;6.738;2022-09-21T06:15:00;8.07;;;4.80;;
59074;SDS011;44860;53.020;6.738;2022-09-21T06:17:25;9.73;;;4.70;;
59074;SDS011;44860;53.020;6.738;2022-09-21T06:19:52;8.65;;;4.82;;
59074;SDS011;44860;53.020;6.738;2022-09-21T06:22:18;7.82;;;4.07;;
59074;SDS011;44860;53.020;6.738;2022-09-21T06:24:44;6.10;;;4.10;;
59074;SDS011;44860;53.020;6.738;2022-09-21T06:27:09;5.97;;;3.97;;
59074;SDS011;44860;53.020;6.738;2022-09-21T06:29:35;7.55;;;3.70;;
59074;SDS011;44860;53.020;6.738;2022-09-21T06:32:01;6.35;;;3.95;;
59074;SDS011;44860;53.020;6.738;2022-09-21T06:34:28;7.32;;;4.10;;
59074;SDS011;44860;53.020;6.738;2022-09-21T06:36:53;10.20;;;3.65;;
59074;SDS011;44860;53.020;6.738;2022-09-21T06:39:19;7.50;;;3.90;;
59074;SDS011;44860;53.020;6.738;2022-09-21T06:41:45;7.40;;;3.75;;
59074;SDS011;44860;53.020;6.738;2022-09-21T06:44:10;7.65;;;3.40;;
59074;SDS011;44860;53.020;6.738;2022-09-21T06:46:36;8.05;;;3.67;;
59074;SDS011;44860;53.020;6.738;2022-09-21T06:49:02;7.43;;;3.30;;
59074;SDS011;44860;53.020;6.738;2022-09-21T06:51:28;5.22;;;3.60;;
59074;SDS011;44860;53.020;6.738;2022-09-21T06:53:54;12.63;;;4.05;;
59074;SDS011;44860;53.020;6.738;2022-09-21T06:56:21;5.65;;;3.60;;
59074;SDS011;44860;53.020;6.738;2022-09-21T06:58:47;8.48;;;4.20;;
59074;SDS011;44860;53.020;6.738;2022-09-21T07:01:13;6.15;;;3.75;;
59074;SDS011;44860;53.020;6.738;2022-09-21T07:03:40;6.22;;;3.80;;
59074;SDS011;44860;53.020;6.738;2022-09-21T07:06:07;11.55;;;4.57;;
59074;SDS011;44860;53.020;6.738;2022-09-21T07:08:39;11.02;;;3.92;;
59074;SDS011;44860;53.020;6.738;2022-09-21T07:11:08;11.25;;;4.75;;
59074;SDS011;44860;53.020;6.738;2022-09-21T07:13:34;9.60;;;4.93;;
59074;SDS011;44860;53.020;6.738;2022-09-21T07:16:06;10.38;;;4.95;;
59074;SDS011;44860;53.020;6.738;2022-09-21T07:21:07;14.07;;;4.80;;
59074;SDS011;44860;53.020;6.738;2022-09-21T07:26:06;12.35;;;5.40;;
59074;SDS011;44860;53.020;6.738;2022-09-21T07:28:35;19.10;;;7.80;;
59074;SDS011;44860;53.020;6.738;2022-09-21T07:31:04;19.20;;;9.27;;
59074;SDS011;44860;53.020;6.738;2022-09-21T07:36:00;15.68;;;6.30;;
59074;SDS011;44860;53.020;6.738;2022-09-21T07:38:28;17.10;;;10.32;;
59074;SDS011;44860;53.020;6.738;2022-09-21T07:40:53;18.05;;;7.35;;
59074;SDS011;44860;53.020;6.738;2022-09-21T07:43:19;16.27;;;8.00;;
59074;SDS011;44860;53.020;6.738;2022-09-21T07:45:54;14.77;;;5.15;;
59074;SDS011;44860;53.020;6.738;2022-09-21T07:48:20;12.27;;;4.20;;
59074;SDS011;44860;53.020;6.738;2022-09-21T07:50:46;10.77;;;4.22;;
59074;SDS011;44860;53.020;6.738;2022-09-21T07:53:13;12.63;;;3.88;;
59074;SDS011;44860;53.020;6.738;2022-09-21T07:55:40;14.27;;;3.63;;
59074;SDS011;44860;53.020;6.738;2022-09-21T07:58:06;10.63;;;3.95;;
59074;SDS011;44860;53.020;6.738;2022-09-21T08:00:50;13.70;;;5.05;;
59074;SDS011;44860;53.020;6.738;2022-09-21T08:03:16;10.88;;;3.10;;
59074;SDS011;44860;53.020;6.738;2022-09-21T08:05:42;10.80;;;2.95;;
59074;SDS011;44860;53.020;6.738;2022-09-21T08:08:07;12.80;;;2.80;;
59074;SDS011;44860;53.020;6.738;2022-09-21T08:10:34;8.40;;;2.20;;
59074;SDS011;44860;53.020;6.738;2022-09-21T08:13:00;12.57;;;2.67;;
59074;SDS011;44860;53.020;6.738;2022-09-21T08:15:25;9.88;;;2.25;;
59074;SDS011;44860;53.020;6.738;2022-09-21T08:17:52;12.30;;;2.00;;
59074;SDS011;44860;53.020;6.738;2022-09-21T08:20:18;7.50;;;1.67;;
59074;SDS011;44860;53.020;6.738;2022-09-21T08:22:45;7.45;;;1.85;;
59074;SDS011;44860;53.020;6.738;2022-09-21T08:25:11;10.23;;;1.58;;
59074;SDS011;44860;53.020;6.738;2022-09-21T08:27:37;12.20;;;1.88;;
59074;SDS011;44860;53.020;6.738;2022-09-21T08:30:04;7.85;;;1.70;;
59074;SDS011;44860;53.020;6.738;2022-09-21T08:32:31;9.60;;;1.73;;
59074;SDS011;44860;53.020;6.738;2022-09-21T08:34:57;9.38;;;1.70;;
59074;SDS011;44860;53.020;6.738;2022-09-21T08:37:23;10.90;;;1.80;;
59074;SDS011;44860;53.020;6.738;2022-09-21T08:39:49;10.30;;;1.45;;
59074;SDS011;44860;53.020;6.738;2022-09-21T08:44:52;15.25;;;1.80;;
59074;SDS011;44860;53.020;6.738;2022-09-21T08:53:17;10.73;;;1.80;;
59074;SDS011;44860;53.020;6.738;2022-09-21T08:55:43;10.00;;;1.58;;
59074;SDS011;44860;53.020;6.738;2022-09-21T08:58:15;5.28;;;1.67;;
59074;SDS011;44860;53.020;6.738;2022-09-21T09:03:46;9.13;;;1.60;;
59074;SDS011;44860;53.020;6.738;2022-09-21T09:09:48;4.70;;;1.23;;
59074;SDS011;44860;53.020;6.738;2022-09-21T09:18:35;7.22;;;1.30;;
59074;SDS011;44860;53.020;6.738;2022-09-21T09:21:33;5.65;;;1.25;;
59074;SDS011;44860;53.020;6.738;2022-09-21T09:23:53;7.72;;;1.60;;
59074;SDS011;44860;53.020;6.738;2022-09-21T09:29:03;5.85;;;1.38;;
59074;SDS011;44860;53.020;6.738;2022-09-21T09:31:38;6.47;;;1.30;;
59074;SDS011;44860;53.020;6.738;2022-09-21T09:36:41;5.25;;;1.42;;
59074;SDS011;44860;53.020;6.738;2022-09-21T09:39:12;7.80;;;1.48;;
59074;SDS011;44860;53.020;6.738;2022-09-21T09:47:47;6.57;;;1.08;;
59074;SDS011;44860;53.020;6.738;2022-09-21T09:50:12;9.35;;;1.65;;
59074;SDS011;44860;53.020;6.738;2022-09-21T09:52:47;6.75;;;1.27;;
59074;SDS011;44860;53.020;6.738;2022-09-21T09:55:22;5.05;;;1.20;;
59074;SDS011;44860;53.020;6.738;2022-09-21T09:57:50;7.20;;;1.67;;
59074;SDS011;44860;53.020;6.738;2022-09-21T10:00:19;5.45;;;1.30;;
59074;SDS011;44860;53.020;6.738;2022-09-21T10:02:47;6.45;;;1.70;;
59074;SDS011;44860;53.020;6.738;2022-09-21T10:05:18;6.32;;;1.10;;
59074;SDS011;44860;53.020;6.738;2022-09-21T10:07:44;6.40;;;1.33;;
59074;SDS011;44860;53.020;6.738;2022-09-21T10:12:45;6.47;;;1.05;;
59074;SDS011;44860;53.020;6.738;2022-09-21T10:15:11;8.80;;;1.52;;
59074;SDS011;44860;53.020;6.738;2022-09-21T10:17:37;6.70;;;1.35;;
59074;SDS011;44860;53.020;6.738;2022-09-21T10:20:04;5.28;;;1.33;;
59074;SDS011;44860;53.020;6.738;2022-09-21T10:22:32;8.02;;;1.55;;
59074;SDS011;44860;53.020;6.738;2022-09-21T10:24:58;7.53;;;1.67;;
59074;SDS011;44860;53.020;6.738;2022-09-21T10:27:30;7.15;;;1.50;;
59074;SDS011;44860;53.020;6.738;2022-09-21T10:29:59;4.93;;;1.23;;
59074;SDS011;44860;53.020;6.738;2022-09-21T10:32:26;7.65;;;1.48;;
59074;SDS011;44860;53.020;6.738;2022-09-21T10:42:44;7.18;;;1.33;;
59074;SDS011;44860;53.020;6.738;2022-09-21T10:45:13;6.78;;;1.33;;
59074;SDS011;44860;53.020;6.738;2022-09-21T10:47:51;5.25;;;1.50;;
59074;SDS011;44860;53.020;6.738;2022-09-21T10:50:27;11.00;;;3.60;;
59074;SDS011;44860;53.020;6.738;2022-09-21T10:52:54;8.63;;;2.38;;
59074;SDS011;44860;53.020;6.738;2022-09-21T10:55:47;5.35;;;1.20;;
59074;SDS011;44860;53.020;6.738;2022-09-21T10:58:24;4.30;;;0.98;;
59074;SDS011;44860;53.020;6.738;2022-09-21T11:00:50;5.50;;;1.10;;
59074;SDS011;44860;53.020;6.738;2022-09-21T11:05:55;6.65;;;1.10;;
59074;SDS011;44860;53.020;6.738;2022-09-21T11:08:37;4.38;;;1.00;;
59074;SDS011;44860;53.020;6.738;2022-09-21T11:16:55;5.57;;;1.20;;
59074;SDS011;44860;53.020;6.738;2022-09-21T11:27:50;5.13;;;0.80;;
59074;SDS011;44860;53.020;6.738;2022-09-21T11:30:25;4.95;;;1.17;;
59074;SDS011;44860;53.020;6.738;2022-09-21T11:36:45;5.22;;;1.00;;
59074;SDS011;44860;53.020;6.738;2022-09-21T11:38:54;4.82;;;1.00;;
59074;SDS011;44860;53.020;6.738;2022-09-21T11:52:51;5.47;;;1.27;;
59074;SDS011;44860;53.020;6.738;2022-09-21T12:06:44;6.15;;;1.00;;
59074;SDS011;44860;53.020;6.738;2022-09-21T12:15:09;3.40;;;0.90;;
59074;SDS011;44860;53.020;6.738;2022-09-21T12:22:58;5.03;;;0.95;;
59074;SDS011;44860;53.020;6.738;2022-09-21T12:25:40;4.43;;;0.77;;
59074;SDS011;44860;53.020;6.738;2022-09-21T12:31:00;3.10;;;1.08;;
59074;SDS011;44860;53.020;6.738;2022-09-21T12:33:52;6.40;;;0.82;;
59074;SDS011;44860;53.020;6.738;2022-09-21T12:36:30;4.28;;;1.02;;
59074;SDS011;44860;53.020;6.738;2022-09-21T12:41:50;4.88;;;0.90;;
59074;SDS011;44860;53.020;6.738;2022-09-21T12:49:48;3.17;;;0.98;;
59074;SDS011;44860;53.020;6.738;2022-09-21T12:52:22;4.32;;;0.77;;
59074;SDS011;44860;53.020;6.738;2022-09-21T12:54:56;6.28;;;0.90;;
59074;SDS011;44860;53.020;6.738;2022-09-21T13:00:20;3.65;;;0.73;;
59074;SDS011;44860;53.020;6.738;2022-09-21T13:02:56;3.78;;;1.20;;
59074;SDS011;44860;53.020;6.738;2022-09-21T13:08:16;5.00;;;0.95;;
59074;SDS011;44860;53.020;6.738;2022-09-21T13:13:30;3.65;;;0.77;;
59074;SDS011;44860;53.020;6.738;2022-09-21T13:18:28;4.25;;;0.85;;
59074;SDS011;44860;53.020;6.738;2022-09-21T13:24:03;2.38;;;0.75;;
59074;SDS011;44860;53.020;6.738;2022-09-21T13:26:31;4.85;;;0.98;;
59074;SDS011;44860;53.020;6.738;2022-09-21T13:29:04;6.03;;;0.90;;
59074;SDS011;44860;53.020;6.738;2022-09-21T13:39:49;3.15;;;0.88;;
59074;SDS011;44860;53.020;6.738;2022-09-21T13:44:53;5.07;;;0.95;;
59074;SDS011;44860;53.020;6.738;2022-09-21T13:47:35;6.53;;;1.02;;
59074;SDS011;44860;53.020;6.738;2022-09-21T13:53:03;4.55;;;0.90;;
59074;SDS011;44860;53.020;6.738;2022-09-21T13:55:34;4.88;;;1.00;;
59074;SDS011;44860;53.020;6.738;2022-09-21T13:58:04;7.18;;;1.23;;
59074;SDS011;44860;53.020;6.738;2022-09-21T14:03:24;6.25;;;0.98;;
59074;SDS011;44860;53.020;6.738;2022-09-21T14:06:11;3.42;;;0.90;;
59074;SDS011;44860;53.020;6.738;2022-09-21T14:08:44;6.15;;;1.05;;
59074;SDS011;44860;53.020;6.738;2022-09-21T14:30:17;4.80;;;1.20;;
59074;SDS011;44860;53.020;6.738;2022-09-21T14:35:25;6.03;;;1.10;;
59074;SDS011;44860;53.020;6.738;2022-09-21T14:40:44;3.90;;;0.77;;
59074;SDS011;44860;53.020;6.738;2022-09-21T14:43:14;4.30;;;0.90;;
59074;SDS011;44860;53.020;6.738;2022-09-21T14:51:09;4.15;;;0.95;;
59074;SDS011;44860;53.020;6.738;2022-09-21T14:56:33;5.63;;;1.33;;
59074;SDS011;44860;53.020;6.738;2022-09-21T15:08:05;8.00;;;1.02;;
59074;SDS011;44860;53.020;6.738;2022-09-21T15:16:47;5.22;;;0.80;;
59074;SDS011;44860;53.020;6.738;2022-09-21T15:19:22;3.90;;;0.80;;
59074;SDS011;44860;53.020;6.738;2022-09-21T15:21:54;6.75;;;0.82;;
59074;SDS011;44860;53.020;6.738;2022-09-21T15:24:23;6.65;;;1.27;;
59074;SDS011;44860;53.020;6.738;2022-09-21T15:26:50;5.00;;;1.23;;
59074;SDS011;44860;53.020;6.738;2022-09-21T15:29:28;5.55;;;1.10;;
59074;SDS011;44860;53.020;6.738;2022-09-21T15:31:55;3.85;;;0.93;;
59074;SDS011;44860;53.020;6.738;2022-09-21T15:34:21;4.88;;;0.90;;
59074;SDS011;44860;53.020;6.738;2022-09-21T15:36:48;4.32;;;1.00;;
59074;SDS011;44860;53.020;6.738;2022-09-21T15:39:29;3.88;;;1.05;;
59074;SDS011;44860;53.020;6.738;2022-09-21T15:44:33;17.08;;;4.40;;
59074;SDS011;44860;53.020;6.738;2022-09-21T15:47:01;4.15;;;1.00;;
59074;SDS011;44860;53.020;6.738;2022-09-21T15:49:32;4.00;;;1.20;;
59074;SDS011;44860;53.020;6.738;2022-09-21T15:52:01;5.22;;;0.90;;
59074;SDS011;44860;53.020;6.738;2022-09-21T15:54:51;5.50;;;1.10;;
59074;SDS011;44860;53.020;6.738;2022-09-21T16:00:01;7.30;;;1.50;;
59074;SDS011;44860;53.020;6.738;2022-09-21T16:03:15;6.22;;;1.42;;
59074;SDS011;44860;53.020;6.738;2022-09-21T16:05:51;3.00;;;0.73;;
59074;SDS011;44860;53.020;6.738;2022-09-21T16:10:50;5.63;;;1.25;;
59074;SDS011;44860;53.020;6.738;2022-09-21T16:13:21;5.07;;;0.80;;
59074;SDS011;44860;53.020;6.738;2022-09-21T16:21:43;6.00;;;1.00;;
59074;SDS011;44860;53.020;6.738;2022-09-21T16:24:19;5.70;;;1.08;;
59074;SDS011;44860;53.020;6.738;2022-09-21T16:26:57;4.07;;;0.98;;
59074;SDS011;44860;53.020;6.738;2022-09-21T16:29:26;3.20;;;0.80;;
59074;SDS011;44860;53.020;6.738;2022-09-21T16:34:43;8.88;;;1.08;;
59074;SDS011;44860;53.020;6.738;2022-09-21T16:39:48;2.85;;;1.10;;
59074;SDS011;44860;53.020;6.738;2022-09-21T16:42:14;4.35;;;0.95;;
59074;SDS011;44860;53.020;6.738;2022-09-21T16:44:40;3.15;;;0.77;;
59074;SDS011;44860;53.020;6.738;2022-09-21T16:49:38;3.65;;;0.85;;
59074;SDS011;44860;53.020;6.738;2022-09-21T16:52:04;4.13;;;0.90;;
59074;SDS011;44860;53.020;6.738;2022-09-21T16:54:31;7.70;;;1.05;;
59074;SDS011;44860;53.020;6.738;2022-09-21T16:56:59;3.92;;;0.82;;
59074;SDS011;44860;53.020;6.738;2022-09-21T16:59:26;7.43;;;1.10;;
59074;SDS011;44860;53.020;6.738;2022-09-21T17:01:54;4.97;;;1.05;;
59074;SDS011;44860;53.020;6.738;2022-09-21T17:04:22;5.57;;;0.93;;
59074;SDS011;44860;53.020;6.738;2022-09-21T17:06:50;2.80;;;0.80;;
59074;SDS011;44860;53.020;6.738;2022-09-21T17:09:25;6.10;;;0.98;;
59074;SDS011;44860;53.020;6.738;2022-09-21T17:11:51;6.47;;;0.90;;
59074;SDS011;44860;53.020;6.738;2022-09-21T17:14:18;4.75;;;0.98;;
59074;SDS011;44860;53.020;6.738;2022-09-21T17:16:46;4.82;;;0.90;;
59074;SDS011;44860;53.020;6.738;2022-09-21T17:19:14;4.40;;;0.70;;
59074;SDS011;44860;53.020;6.738;2022-09-21T17:21:41;3.70;;;0.82;;
59074;SDS011;44860;53.020;6.738;2022-09-21T17:24:07;4.28;;;0.95;;
59074;SDS011;44860;53.020;6.738;2022-09-21T17:26:32;6.68;;;1.10;;
59074;SDS011;44860;53.020;6.738;2022-09-21T17:28:59;3.50;;;0.70;;
59074;SDS011;44860;53.020;6.738;2022-09-21T17:31:27;3.22;;;0.90;;
59074;SDS011;44860;53.020;6.738;2022-09-21T17:33:53;4.10;;;0.70;;
59074;SDS011;44860;53.020;6.738;2022-09-21T17:36:21;2.10;;;0.95;;
59074;SDS011;44860;53.020;6.738;2022-09-21T17:38:47;3.92;;;1.20;;
59074;SDS011;44860;53.020;6.738;2022-09-21T17:41:22;4.07;;;1.30;;
59074;SDS011;44860;53.020;6.738;2022-09-21T17:44:04;5.93;;;1.60;;
59074;SDS011;44860;53.020;6.738;2022-09-21T17:49:25;5.53;;;1.27;;
59074;SDS011;44860;53.020;6.738;2022-09-21T17:51:51;5.70;;;1.50;;
59074;SDS011;44860;53.020;6.738;2022-09-21T17:54:35;4.47;;;1.70;;
59074;SDS011;44860;53.020;6.738;2022-09-21T17:57:15;4.50;;;1.60;;
59074;SDS011;44860;53.020;6.738;2022-09-21T18:00:15;6.65;;;1.88;;
59074;SDS011;44860;53.020;6.738;2022-09-21T18:02:44;4.30;;;1.63;;
59074;SDS011;44860;53.020;6.738;2022-09-21T18:05:14;5.65;;;1.55;;
59074;SDS011;44860;53.020;6.738;2022-09-21T18:07:48;6.63;;;1.98;;
59074;SDS011;44860;53.020;6.738;2022-09-21T18:10:15;4.53;;;1.75;;
59074;SDS011;44860;53.020;6.738;2022-09-21T18:26:25;5.28;;;2.08;;
59074;SDS011;44860;53.020;6.738;2022-09-21T18:28:51;4.43;;;2.33;;
59074;SDS011;44860;53.020;6.738;2022-09-21T18:40:11;5.97;;;2.65;;
59074;SDS011;44860;53.020;6.738;2022-09-21T18:42:51;5.85;;;2.65;;
59074;SDS011;44860;53.020;6.738;2022-09-21T18:48:03;5.53;;;2.53;;
59074;SDS011;44860;53.020;6.738;2022-09-21T18:50:33;6.82;;;2.50;;
59074;SDS011;44860;53.020;6.738;2022-09-21T18:55:51;5.82;;;2.30;;
59074;SDS011;44860;53.020;6.738;2022-09-21T18:58:17;4.53;;;2.30;;
59074;SDS011;44860;53.020;6.738;2022-09-21T19:00:43;6.70;;;2.47;;
59074;SDS011;44860;53.020;6.738;2022-09-21T19:03:12;6.15;;;2.13;;
59074;SDS011;44860;53.020;6.738;2022-09-21T19:08:52;8.88;;;2.80;;
59074;SDS011;44860;53.020;6.738;2022-09-21T19:19:40;7.78;;;5.57;;
59074;SDS011;44860;53.020;6.738;2022-09-21T19:22:25;9.48;;;6.55;;
59074;SDS011;44860;53.020;6.738;2022-09-21T19:27:59;8.88;;;7.97;;
59074;SDS011;44860;53.020;6.738;2022-09-21T19:30:31;10.70;;;9.07;;
59074;SDS011;44860;53.020;6.738;2022-09-21T19:32:58;11.10;;;7.90;;
59074;SDS011;44860;53.020;6.738;2022-09-21T19:35:26;10.88;;;7.70;;
59074;SDS011;44860;53.020;6.738;2022-09-21T19:37:57;9.10;;;7.10;;
59074;SDS011;44860;53.020;6.738;2022-09-21T19:40:29;8.48;;;4.82;;
59074;SDS011;44860;53.020;6.738;2022-09-21T19:43:18;6.72;;;4.28;;
59074;SDS011;44860;53.020;6.738;2022-09-21T19:48:45;10.50;;;3.88;;
59074;SDS011;44860;53.020;6.738;2022-09-21T19:53:42;8.15;;;3.45;;
59074;SDS011;44860;53.020;6.738;2022-09-21T19:56:27;6.63;;;3.83;;
59074;SDS011;44860;53.020;6.738;2022-09-21T19:59:14;8.63;;;3.72;;
59074;SDS011;44860;53.020;6.738;2022-09-21T20:02:00;7.45;;;4.65;;
59074;SDS011;44860;53.020;6.738;2022-09-21T20:04:32;6.88;;;4.47;;
59074;SDS011;44860;53.020;6.738;2022-09-21T20:07:46;6.53;;;4.28;;
59074;SDS011;44860;53.020;6.738;2022-09-21T20:15:20;6.60;;;4.57;;